createdAt,value
2022-11-25T00:00:12.741Z,93.60
2022-11-25T00:05:11.600Z,93.60
2022-11-25T00:10:10.630Z,93.50
2022-11-25T00:15:09.835Z,93.40
2022-11-25T00:20:08.718Z,93.40
2022-11-25T00:25:07.457Z,93.50
2022-11-25T00:30:06.689Z,93.50
2022-11-25T00:35:05.786Z,93.60
2022-11-25T00:40:04.497Z,93.60
2022-11-25T00:45:03.697Z,93.70
2022-11-25T00:50:02.851Z,93.60
2022-11-25T00:55:01.732Z,93.70
2022-11-25T01:00:00.861Z,93.70
2022-11-25T01:04:59.777Z,93.70
2022-11-25T01:09:58.745Z,93.80
2022-11-25T01:14:57.576Z,93.90
2022-11-25T01:19:56.569Z,93.90
2022-11-25T01:24:56.355Z,93.90
2022-11-25T01:29:55.653Z,94.00
2022-11-25T01:34:54.640Z,94.10
2022-11-25T01:39:53.646Z,94.30
2022-11-25T01:44:52.669Z,94.40
2022-11-25T01:49:51.769Z,94.50
2022-11-25T01:54:50.979Z,94.60
2022-11-25T01:59:49.694Z,94.70
2022-11-25T02:04:48.713Z,94.70
2022-11-25T02:09:47.826Z,94.80
2022-11-25T02:14:46.753Z,94.80
2022-11-25T02:19:46.033Z,94.30
2022-11-25T02:24:46.371Z,94.40
2022-11-25T02:29:45.902Z,94.40
2022-11-25T02:34:44.718Z,94.40
2022-11-25T02:39:43.773Z,94.50
2022-11-25T02:44:42.625Z,94.50
2022-11-25T02:49:41.907Z,94.50
2022-11-25T02:54:40.656Z,94.60
2022-11-25T02:59:39.665Z,94.60
2022-11-25T03:04:38.815Z,94.70
2022-11-25T03:09:37.694Z,94.70
2022-11-25T03:14:37.510Z,94.60
2022-11-25T03:19:36.743Z,94.50
2022-11-25T03:24:35.937Z,94.50
2022-11-25T03:29:34.860Z,94.50
2022-11-25T03:34:34.378Z,94.50
2022-11-25T03:39:34.095Z,94.40
2022-11-25T03:44:32.537Z,94.50
2022-11-25T03:49:31.749Z,94.40
2022-11-25T03:54:32.543Z,94.50
2022-11-25T03:59:31.716Z,94.50
2022-11-25T04:04:30.650Z,94.50
2022-11-25T04:09:31.629Z,94.50
2022-11-25T04:14:31.154Z,94.50
2022-11-25T04:19:30.167Z,94.50
2022-11-25T04:24:29.938Z,94.70
2022-11-25T04:29:29.338Z,94.70
2022-11-25T04:34:28.765Z,94.70
2022-11-25T04:39:29.634Z,94.80
2022-11-25T04:44:29.122Z,94.80
2022-11-25T04:49:27.766Z,94.80
2022-11-25T04:54:27.168Z,94.80
2022-11-25T04:59:42.030Z,94.80
2022-11-25T05:04:42.069Z,94.80
2022-11-25T05:09:42.482Z,95.00
2022-11-25T05:14:42.159Z,95.10
2022-11-25T05:19:41.162Z,95.20
2022-11-25T05:24:40.678Z,95.20
2022-11-25T05:29:43.074Z,95.30
2022-11-25T05:34:41.993Z,95.40
2022-11-25T05:39:48.496Z,95.50
2022-11-25T05:44:51.145Z,95.80
2022-11-25T05:49:50.176Z,95.90
2022-11-25T05:54:54.393Z,96.10
2022-11-25T06:00:04.469Z,96.20
2022-11-25T06:05:04.074Z,96.60
2022-11-25T06:10:04.276Z,96.50
2022-11-25T06:15:03.873Z,96.80
2022-11-25T06:20:04.128Z,96.90
2022-11-25T06:25:04.074Z,97.00
2022-11-25T06:30:04.209Z,97.10
2022-11-25T06:35:16.798Z,97.10
2022-11-25T06:40:15.842Z,97.50
2022-11-25T06:45:14.862Z,98.10
2022-11-25T06:50:13.923Z,98.30
2022-11-25T06:55:12.883Z,98.40
2022-11-25T07:00:11.703Z,98.60
2022-11-25T07:05:10.741Z,98.90
2022-11-25T07:10:10.166Z,98.80
2022-11-25T07:15:08.715Z,98.90
2022-11-25T07:20:08.249Z,99.00
2022-11-25T07:25:08.846Z,98.60
2022-11-25T07:30:54.879Z,98.60
2022-11-25T07:35:08.868Z,98.50
2022-11-25T07:40:07.858Z,98.40
2022-11-25T07:45:11.479Z,98.30
2022-11-25T07:50:10.834Z,98.30
2022-11-25T07:55:09.842Z,98.30
2022-11-25T08:00:14.694Z,98.30
2022-11-25T08:05:13.770Z,98.40
2022-11-25T08:10:12.853Z,98.50
2022-11-25T08:15:12.110Z,98.60
2022-11-25T08:20:10.812Z,98.50
2022-11-25T08:25:09.827Z,98.40
2022-11-25T08:30:08.834Z,98.40
2022-11-25T08:35:08.150Z,98.30
2022-11-25T08:40:06.859Z,98.20
2022-11-25T08:45:05.893Z,98.10
2022-11-25T08:50:04.883Z,97.90
2022-11-25T08:55:03.910Z,98.00
2022-11-25T09:00:03.146Z,98.00
2022-11-25T09:05:02.002Z,97.80
2022-11-25T09:10:00.942Z,97.70
2022-11-25T09:15:00.029Z,97.60
2022-11-25T09:19:58.936Z,97.70
2022-11-25T09:24:57.790Z,97.80
2022-11-25T09:29:56.800Z,97.80
2022-11-25T09:34:55.788Z,97.80
2022-11-25T09:39:55.837Z,97.90
2022-11-25T09:45:13.149Z,98.00
2022-11-25T09:50:11.849Z,98.00
2022-11-25T09:55:10.971Z,98.10
2022-11-25T10:00:16.579Z,98.10
2022-11-25T10:05:15.839Z,98.10
2022-11-25T10:10:14.854Z,98.10
2022-11-25T10:15:18.453Z,97.90
2022-11-25T10:20:17.813Z,97.80
2022-11-25T10:25:17.001Z,97.90
2022-11-25T10:30:15.880Z,97.80
2022-11-25T10:35:15.032Z,97.80
2022-11-25T10:40:13.832Z,97.80
2022-11-25T10:45:12.779Z,97.10
2022-11-25T10:50:11.889Z,96.30
2022-11-25T10:55:10.889Z,96.60
2022-11-25T11:00:15.665Z,96.50
2022-11-25T11:05:11.207Z,96.60
2022-11-25T11:10:09.870Z,96.70
2022-11-25T11:15:08.869Z,96.20
2022-11-25T11:20:08.069Z,96.10
2022-11-25T11:25:07.005Z,95.90
2022-11-25T11:30:05.993Z,95.80
2022-11-25T11:35:05.117Z,95.50
2022-11-25T11:40:04.089Z,95.10
2022-11-25T11:45:03.199Z,94.50
2022-11-25T11:50:02.144Z,94.20
2022-11-25T11:55:01.052Z,94.50
2022-11-25T12:00:00.053Z,94.00
2022-11-25T12:04:58.875Z,93.60
2022-11-25T12:09:58.081Z,93.50
2022-11-25T12:14:57.086Z,92.80
2022-11-25T12:19:55.981Z,92.70
2022-11-25T12:24:54.814Z,92.50
2022-11-25T12:29:53.937Z,92.60
2022-11-25T12:34:52.778Z,92.40
2022-11-25T12:39:51.961Z,92.60
2022-11-25T12:44:50.948Z,92.70
2022-11-25T12:49:49.897Z,92.70
2022-11-25T12:54:48.796Z,92.70
2022-11-25T12:59:48.118Z,92.80
2022-11-25T13:04:47.029Z,92.60
2022-11-25T13:09:46.117Z,92.30
2022-11-25T13:14:45.577Z,92.30
2022-11-25T13:19:44.793Z,92.50
2022-11-25T13:24:43.873Z,91.60
2022-11-25T13:29:43.077Z,91.20
2022-11-25T13:34:42.093Z,91.20
2022-11-25T13:39:41.115Z,90.90
2022-11-25T13:44:40.222Z,90.80
2022-11-25T13:49:39.251Z,90.60
2022-11-25T13:54:38.258Z,90.50
2022-11-25T13:59:37.304Z,90.50
2022-11-25T14:04:37.013Z,90.40
2022-11-25T14:09:36.319Z,90.20
2022-11-25T14:14:35.953Z,89.90
2022-11-25T14:19:51.078Z,89.60
2022-11-25T14:24:36.143Z,88.60
2022-11-25T14:29:35.245Z,88.20
2022-11-25T14:34:35.269Z,88.60
2022-11-25T14:39:35.420Z,89.00
2022-11-25T14:44:35.787Z,88.60
2022-11-25T14:50:00.082Z,88.30
2022-11-25T14:54:36.326Z,88.30
2022-11-25T14:59:35.518Z,88.50
2022-11-25T15:04:35.108Z,89.10
2022-11-25T15:09:34.017Z,89.40
2022-11-25T15:14:32.985Z,89.80
2022-11-25T15:19:33.769Z,89.90
2022-11-25T15:24:33.020Z,90.10
2022-11-25T15:29:32.076Z,90.20
2022-11-25T15:34:31.082Z,90.30
2022-11-25T15:39:30.305Z,90.40
2022-11-25T15:44:29.019Z,90.40
2022-11-25T15:49:28.102Z,90.40
2022-11-25T15:54:27.120Z,90.50
2022-11-25T15:59:26.130Z,90.60
2022-11-25T16:04:25.051Z,90.70
2022-11-25T16:09:24.914Z,90.90
2022-11-25T16:14:24.032Z,91.00
2022-11-25T16:19:23.011Z,91.10
2022-11-25T16:24:22.029Z,91.20
2022-11-25T16:29:21.235Z,91.30
2022-11-25T16:34:20.041Z,91.40
2022-11-25T16:39:20.186Z,91.50
2022-11-25T16:44:19.049Z,91.50
2022-11-25T16:49:18.081Z,91.50
2022-11-25T16:54:17.790Z,91.60
2022-11-25T16:59:17.502Z,91.70
2022-11-25T17:04:16.036Z,91.70
2022-11-25T17:09:15.166Z,91.70
2022-11-25T17:14:14.787Z,91.70
2022-11-25T17:19:14.432Z,91.80
2022-11-25T17:24:13.247Z,91.90
2022-11-25T17:29:12.035Z,91.90
2022-11-25T17:34:11.076Z,92.00
2022-11-25T17:39:10.364Z,92.10
2022-11-25T17:44:08.947Z,92.20
2022-11-25T17:49:08.308Z,92.20
2022-11-25T17:54:19.159Z,92.30
2022-11-25T17:59:18.190Z,92.30
2022-11-25T18:04:17.195Z,92.40
2022-11-25T18:09:16.222Z,92.50
2022-11-25T18:14:15.512Z,92.60
2022-11-25T18:19:14.322Z,92.60
2022-11-25T18:24:13.302Z,92.70
2022-11-25T18:29:12.595Z,92.60
2022-11-25T18:34:11.234Z,92.60
2022-11-25T18:39:10.243Z,92.70
2022-11-25T18:44:09.271Z,92.70
2022-11-25T18:49:08.297Z,92.70
2022-11-25T18:54:07.856Z,92.70
2022-11-25T18:59:07.138Z,92.80
2022-11-25T19:04:06.199Z,92.90
2022-11-25T19:09:06.508Z,93.00
2022-11-25T19:14:05.272Z,93.10
2022-11-25T19:19:04.095Z,93.20
2022-11-25T19:24:03.202Z,93.20
2022-11-25T19:29:02.130Z,93.10
2022-11-25T19:34:01.136Z,93.00
2022-11-25T19:39:00.353Z,93.10
2022-11-25T19:43:59.058Z,93.00
2022-11-25T19:48:58.370Z,93.10
2022-11-25T19:53:57.145Z,93.10
2022-11-25T19:58:56.205Z,93.20
2022-11-25T20:03:55.402Z,93.20
2022-11-25T20:08:56.450Z,93.30
2022-11-25T20:13:55.155Z,93.20
2022-11-25T20:18:54.173Z,93.20
2022-11-25T20:23:53.181Z,93.10
2022-11-25T20:28:52.233Z,93.10
2022-11-25T20:33:51.193Z,93.20
2022-11-25T20:38:50.248Z,93.30
2022-11-25T20:43:49.273Z,93.40
2022-11-25T20:48:48.300Z,93.40
2022-11-25T20:53:47.288Z,93.30
2022-11-25T20:58:46.441Z,93.20
2022-11-25T21:03:45.182Z,93.00
2022-11-25T21:08:44.981Z,92.90
2022-11-25T21:13:44.249Z,92.90
2022-11-25T21:18:43.567Z,92.80
2022-11-25T21:23:42.362Z,92.90
2022-11-25T21:28:41.353Z,92.90
2022-11-25T21:33:40.377Z,92.90
2022-11-25T21:38:39.494Z,92.90
2022-11-25T21:43:38.401Z,93.00
2022-11-25T21:48:39.089Z,93.20
2022-11-25T21:53:38.249Z,93.10
2022-11-25T21:58:37.269Z,93.00
2022-11-25T22:03:36.281Z,93.40
2022-11-25T22:08:35.334Z,93.40
2022-11-25T22:13:34.293Z,93.40
2022-11-25T22:18:33.425Z,93.40
2022-11-25T22:23:32.315Z,93.40
2022-11-25T22:28:31.328Z,93.40
2022-11-25T22:33:30.355Z,93.40
2022-11-25T22:38:29.392Z,93.40
2022-11-25T22:43:28.362Z,93.50
2022-11-25T22:48:27.357Z,93.60
2022-11-25T22:53:26.312Z,93.60
2022-11-25T22:58:25.374Z,93.70
2022-11-25T23:03:24.510Z,93.80
2022-11-25T23:08:23.412Z,93.70
2022-11-25T23:13:22.431Z,93.80
2022-11-25T23:18:21.236Z,93.80
2022-11-25T23:23:20.322Z,93.80
2022-11-25T23:28:19.254Z,93.80
2022-11-25T23:33:18.267Z,93.90
2022-11-25T23:38:17.483Z,94.00
2022-11-25T23:43:16.306Z,94.10
2022-11-25T23:48:15.422Z,94.30
2022-11-25T23:53:14.326Z,94.50
2022-11-25T23:58:13.322Z,94.70
